MMGLMMMM

Guest
Details From MMGL - Don Miguel Hidalgo Y Costilla Intl
To MMMM - GENERAL FRANCISCO J MUJICA INTL
Flight Number -
Tags generated
Created
Modified
Stats Distance 135 nm / 250 km
Max Altitude 13,200 ft / 4,023 m
Waypoints 3
Social Downloads 1
Likes 0
Share VATSIM

Download

Looking for another format? Having issues loading an existing format? Contact us
Advertisement - Login to hide

Notes

Basic altitude profile: - Ascent Rate: 2500ft/min - Ascent Speed: 250kts - Cruise Altitude: 35000ft - Cruise Speed: 420kts - Descent Rate: 1500ft/min - Descent Speed: 250kts Options: - Use NATs: yes - Use PACOTS: yes - Use low airways: yes - Use high airways: yes

Route

MMGL VOGAS MMMM

ID Type Via Altitude (ft/m) Position (lat/lon) Dist (leg/tot) Name
O MMGL APT - 0 / 0 20.52458 / -103.30882 - / 0 nm Don Miguel Hidalgo Y Costilla Intl
VOGAS FIX - 13,200 / 4,023 20.15797 / -102.07394 72 / 72 nm
O MMMM APT - 0 / 0 19.85049 / -101.02526 61 / 134 nm GENERAL FRANCISCO J MUJICA INTL

Altitude Profile

Advertisement - Login to hide

MMGL

Details ICAO MMGL (GDL)
Name Miguel Hidalgo y Costilla Airport
Region Mexico
Timezone America/Mexico_City (UTC-6.0)
Stats Elevation 5,016 ft / 1,529 m (AMSL)
Location 20.524700° -103.309000°
Runways 2
Magnetic Variation 6.136° E

METAR

MMGL 191548Z 07004KT 8SM SKC 16/08 A3027 RMK CI

Decode

TAF

Not found

Departure Runways

ID Width Length Bearing (true/mag) Surface Threshold Overrun Markings Lighting
02 98 ft / 30 m 5,911 ft / 1,802 m 30.11° / 23.97° ASPHALT 0 ft / 0 m 115 ft / 35 m PREC-APP
10 197 ft / 60 m 13,153 ft / 4,009 m 114.15° / 108.02° ASPHALT 0 ft / 0 m 190 ft / 58 m PREC-APP CENTERLINE EDGE THRESHOLD SALS
20 98 ft / 30 m 5,911 ft / 1,802 m 210.11° / 203.97° ASPHALT 974 ft / 297 m 0 ft / 0 m PREC-APP
28 197 ft / 60 m 13,153 ft / 4,009 m 294.16° / 288.03° ASPHALT 0 ft / 0 m 197 ft / 60 m PREC-APP CENTERLINE EDGE THRESHOLD ALSF-II

MMMM

Details ICAO MMMM (MLM)
Name General Francisco J Mujica intl
Region Mexico
Timezone America/Mexico_City (UTC-6.0)
Stats Elevation 6,033 ft / 1,839 m (AMSL)
Location 19.849900° -101.025000°
Runways 1
Magnetic Variation 5.297° E

METAR

MMMM 191619Z 00000KT 6SM BKN200 16/10 A3032 RMK 8/002 HZY

Decode

TAF

Not found

Destination Runways

ID Width Length Bearing (true/mag) Surface Threshold Overrun Markings Lighting
05 148 ft / 45 m 11,186 ft / 3,410 m 54.47° / 49.17° ASPHALT 0 ft / 0 m 190 ft / 58 m PREC-APP EDGE THRESHOLD ODALS
23 148 ft / 45 m 11,186 ft / 3,410 m 234.48° / 229.18° ASPHALT 0 ft / 0 m 177 ft / 54 m PREC-APP EDGE THRESHOLD SSALF

Popular Alternatives